If you wish to contribute or participate in the discussions about articles you are invited to join SKYbrary as a registered user

 Actions

Horn Island Airport

From SKYbrary Wiki

YHID
Airport
ICAO: YHID – IATA: HID
Summary
Name Horn Island Airport
Region Asia and Pacific
Territory "YH" is not in the list (AG, AN, AY, BG, BI, BK, C, CT, DA, DB, ...) of allowed values for the "ICAO Territory" property.
Location , Queensland
Serving Horn Island
Elevation 13.106 m
43 ft
43 ft13.106 m
Type medium airport
Coordinates 10° 35' 11.04" S, 142° 17' 24.00" E
Runways
Designator Length Width Surface ROPS
8/26 1389 m4,557.087 ft
30 m98.425 ft
ASP /
14/32 1235 m4,051.837 ft
23 m75.459 ft
ASP /


METAR
Observation YHID 200100Z AUTO 10015KT 9999 // NCD 31/22 Q1010
Station HORN ISLAND
Date/Time 20 November 2019 01:00:00
Wind direction 100°
Wind speed 15 kts
Lowest cloud amount no clouds detected
Temperature 31°C
Dew point 22°C
Humidity 58%
QNH 1010 hPa
Weather condition n/a